sensor_id;sensor_type;location;lat;lon;timestamp;P1;durP1;ratioP1;P2;durP2;ratioP2
16037;SDS011;8123;50.906;6.172;2023-09-19T00:01:32;12.53;;;3.53;;
16037;SDS011;8123;50.906;6.172;2023-09-19T00:03:58;12.90;;;2.93;;
16037;SDS011;8123;50.906;6.172;2023-09-19T00:06:25;9.80;;;3.30;;
16037;SDS011;8123;50.906;6.172;2023-09-19T00:08:53;7.90;;;2.60;;
16037;SDS011;8123;50.906;6.172;2023-09-19T00:11:19;6.33;;;2.83;;
16037;SDS011;8123;50.906;6.172;2023-09-19T00:13:47;10.27;;;2.60;;
16037;SDS011;8123;50.906;6.172;2023-09-19T00:16:14;11.77;;;3.23;;
16037;SDS011;8123;50.906;6.172;2023-09-19T00:18:40;4.17;;;3.00;;
16037;SDS011;8123;50.906;6.172;2023-09-19T00:21:06;10.30;;;2.93;;
16037;SDS011;8123;50.906;6.172;2023-09-19T00:23:32;9.73;;;2.60;;
16037;SDS011;8123;50.906;6.172;2023-09-19T00:25:58;9.87;;;3.03;;
16037;SDS011;8123;50.906;6.172;2023-09-19T00:28:25;7.20;;;2.87;;
16037;SDS011;8123;50.906;6.172;2023-09-19T00:30:51;8.77;;;3.27;;
16037;SDS011;8123;50.906;6.172;2023-09-19T00:33:17;8.47;;;2.60;;
16037;SDS011;8123;50.906;6.172;2023-09-19T00:35:53;11.07;;;2.63;;
16037;SDS011;8123;50.906;6.172;2023-09-19T00:38:19;7.40;;;2.40;;
16037;SDS011;8123;50.906;6.172;2023-09-19T00:40:47;6.80;;;3.13;;
16037;SDS011;8123;50.906;6.172;2023-09-19T00:43:14;8.10;;;2.87;;
16037;SDS011;8123;50.906;6.172;2023-09-19T00:45:42;9.50;;;3.03;;
16037;SDS011;8123;50.906;6.172;2023-09-19T00:48:12;12.57;;;2.97;;
16037;SDS011;8123;50.906;6.172;2023-09-19T00:50:38;4.97;;;2.30;;
16037;SDS011;8123;50.906;6.172;2023-09-19T00:53:07;10.13;;;2.80;;
16037;SDS011;8123;50.906;6.172;2023-09-19T00:55:38;8.97;;;2.97;;
16037;SDS011;8123;50.906;6.172;2023-09-19T00:58:04;8.17;;;2.37;;
16037;SDS011;8123;50.906;6.172;2023-09-19T01:00:33;13.43;;;4.20;;
16037;SDS011;8123;50.906;6.172;2023-09-19T01:03:02;8.13;;;2.87;;
16037;SDS011;8123;50.906;6.172;2023-09-19T01:05:28;10.70;;;3.13;;
16037;SDS011;8123;50.906;6.172;2023-09-19T01:07:54;3.97;;;2.43;;
16037;SDS011;8123;50.906;6.172;2023-09-19T01:10:21;14.30;;;2.67;;
16037;SDS011;8123;50.906;6.172;2023-09-19T01:12:55;6.30;;;2.70;;
16037;SDS011;8123;50.906;6.172;2023-09-19T01:18:52;5.83;;;2.90;;
16037;SDS011;8123;50.906;6.172;2023-09-19T01:21:34;14.73;;;3.17;;
16037;SDS011;8123;50.906;6.172;2023-09-19T01:29:48;15.60;;;3.27;;
16037;SDS011;8123;50.906;6.172;2023-09-19T01:32:16;20.23;;;3.43;;
16037;SDS011;8123;50.906;6.172;2023-09-19T01:37:17;9.60;;;4.40;;
16037;SDS011;8123;50.906;6.172;2023-09-19T01:39:51;12.20;;;3.40;;
16037;SDS011;8123;50.906;6.172;2023-09-19T01:45:34;16.73;;;2.97;;
16037;SDS011;8123;50.906;6.172;2023-09-19T01:50:58;13.53;;;4.23;;
16037;SDS011;8123;50.906;6.172;2023-09-19T01:54:16;7.30;;;2.57;;
16037;SDS011;8123;50.906;6.172;2023-09-19T01:57:13;6.97;;;2.50;;
16037;SDS011;8123;50.906;6.172;2023-09-19T01:59:30;15.03;;;3.13;;
16037;SDS011;8123;50.906;6.172;2023-09-19T02:02:01;9.67;;;2.70;;
16037;SDS011;8123;50.906;6.172;2023-09-19T02:04:30;9.57;;;2.93;;
16037;SDS011;8123;50.906;6.172;2023-09-19T02:06:59;12.80;;;4.00;;
16037;SDS011;8123;50.906;6.172;2023-09-19T02:09:25;6.40;;;3.00;;
16037;SDS011;8123;50.906;6.172;2023-09-19T02:11:51;7.90;;;2.50;;
16037;SDS011;8123;50.906;6.172;2023-09-19T02:14:17;8.93;;;3.20;;
16037;SDS011;8123;50.906;6.172;2023-09-19T02:16:44;16.87;;;2.90;;
16037;SDS011;8123;50.906;6.172;2023-09-19T02:19:10;17.63;;;3.40;;
16037;SDS011;8123;50.906;6.172;2023-09-19T02:21:36;7.90;;;2.73;;
16037;SDS011;8123;50.906;6.172;2023-09-19T02:24:05;8.10;;;2.47;;
16037;SDS011;8123;50.906;6.172;2023-09-19T02:26:33;16.60;;;3.80;;
16037;SDS011;8123;50.906;6.172;2023-09-19T02:29:00;18.03;;;3.53;;
16037;SDS011;8123;50.906;6.172;2023-09-19T02:31:28;14.00;;;3.87;;
16037;SDS011;8123;50.906;6.172;2023-09-19T02:33:54;13.53;;;4.70;;
16037;SDS011;8123;50.906;6.172;2023-09-19T02:36:20;11.23;;;2.40;;
16037;SDS011;8123;50.906;6.172;2023-09-19T02:38:45;9.40;;;2.77;;
16037;SDS011;8123;50.906;6.172;2023-09-19T02:41:11;7.70;;;2.80;;
16037;SDS011;8123;50.906;6.172;2023-09-19T02:43:37;24.20;;;3.53;;
16037;SDS011;8123;50.906;6.172;2023-09-19T02:46:02;13.77;;;3.13;;
16037;SDS011;8123;50.906;6.172;2023-09-19T02:48:28;12.40;;;3.47;;
16037;SDS011;8123;50.906;6.172;2023-09-19T02:50:54;9.53;;;2.87;;
16037;SDS011;8123;50.906;6.172;2023-09-19T02:53:20;11.73;;;2.77;;
16037;SDS011;8123;50.906;6.172;2023-09-19T02:55:46;13.10;;;3.50;;
16037;SDS011;8123;50.906;6.172;2023-09-19T02:58:13;15.93;;;2.90;;
16037;SDS011;8123;50.906;6.172;2023-09-19T03:00:39;16.27;;;2.77;;
16037;SDS011;8123;50.906;6.172;2023-09-19T03:03:07;14.50;;;2.87;;
16037;SDS011;8123;50.906;6.172;2023-09-19T03:05:33;13.50;;;2.90;;
16037;SDS011;8123;50.906;6.172;2023-09-19T03:07:59;9.50;;;2.70;;
16037;SDS011;8123;50.906;6.172;2023-09-19T03:10:26;8.93;;;2.70;;
16037;SDS011;8123;50.906;6.172;2023-09-19T03:12:53;11.37;;;3.10;;
16037;SDS011;8123;50.906;6.172;2023-09-19T03:15:18;9.10;;;3.00;;
16037;SDS011;8123;50.906;6.172;2023-09-19T03:17:44;15.33;;;3.10;;
16037;SDS011;8123;50.906;6.172;2023-09-19T03:20:11;6.00;;;2.33;;
16037;SDS011;8123;50.906;6.172;2023-09-19T03:22:38;13.50;;;3.27;;
16037;SDS011;8123;50.906;6.172;2023-09-19T03:25:05;17.10;;;3.33;;
16037;SDS011;8123;50.906;6.172;2023-09-19T03:27:36;8.53;;;2.50;;
16037;SDS011;8123;50.906;6.172;2023-09-19T03:30:01;6.70;;;2.70;;
16037;SDS011;8123;50.906;6.172;2023-09-19T03:32:32;12.30;;;3.37;;
16037;SDS011;8123;50.906;6.172;2023-09-19T03:34:57;15.40;;;3.03;;
16037;SDS011;8123;50.906;6.172;2023-09-19T03:37:23;14.17;;;3.27;;
16037;SDS011;8123;50.906;6.172;2023-09-19T03:39:49;11.80;;;2.70;;
16037;SDS011;8123;50.906;6.172;2023-09-19T03:42:15;18.83;;;3.30;;
16037;SDS011;8123;50.906;6.172;2023-09-19T03:44:40;13.87;;;3.40;;
16037;SDS011;8123;50.906;6.172;2023-09-19T03:47:06;15.20;;;3.50;;
16037;SDS011;8123;50.906;6.172;2023-09-19T03:49:32;24.53;;;2.90;;
16037;SDS011;8123;50.906;6.172;2023-09-19T03:51:59;13.67;;;3.33;;
16037;SDS011;8123;50.906;6.172;2023-09-19T03:54:24;15.17;;;2.93;;
16037;SDS011;8123;50.906;6.172;2023-09-19T03:56:50;8.73;;;2.70;;
16037;SDS011;8123;50.906;6.172;2023-09-19T03:59:15;7.80;;;2.70;;
16037;SDS011;8123;50.906;6.172;2023-09-19T04:01:43;12.67;;;2.70;;
16037;SDS011;8123;50.906;6.172;2023-09-19T04:04:09;16.17;;;2.90;;
16037;SDS011;8123;50.906;6.172;2023-09-19T04:06:34;18.37;;;4.30;;
16037;SDS011;8123;50.906;6.172;2023-09-19T04:09:01;11.67;;;2.87;;
16037;SDS011;8123;50.906;6.172;2023-09-19T04:11:31;9.03;;;2.60;;
16037;SDS011;8123;50.906;6.172;2023-09-19T04:13:58;9.87;;;2.83;;
16037;SDS011;8123;50.906;6.172;2023-09-19T04:16:24;19.87;;;3.70;;
16037;SDS011;8123;50.906;6.172;2023-09-19T04:18:49;12.60;;;2.97;;
16037;SDS011;8123;50.906;6.172;2023-09-19T04:21:15;20.90;;;3.60;;
16037;SDS011;8123;50.906;6.172;2023-09-19T04:23:41;9.47;;;2.80;;
16037;SDS011;8123;50.906;6.172;2023-09-19T04:26:07;9.60;;;2.70;;
16037;SDS011;8123;50.906;6.172;2023-09-19T04:28:33;15.50;;;3.20;;
16037;SDS011;8123;50.906;6.172;2023-09-19T04:30:59;12.43;;;3.80;;
16037;SDS011;8123;50.906;6.172;2023-09-19T04:33:25;9.00;;;2.73;;
16037;SDS011;8123;50.906;6.172;2023-09-19T04:35:54;13.30;;;2.77;;
16037;SDS011;8123;50.906;6.172;2023-09-19T04:38:20;13.63;;;3.20;;
16037;SDS011;8123;50.906;6.172;2023-09-19T04:40:47;15.30;;;2.83;;
16037;SDS011;8123;50.906;6.172;2023-09-19T04:43:12;10.60;;;2.70;;
16037;SDS011;8123;50.906;6.172;2023-09-19T04:45:38;13.90;;;3.13;;
16037;SDS011;8123;50.906;6.172;2023-09-19T04:48:07;15.77;;;2.70;;
16037;SDS011;8123;50.906;6.172;2023-09-19T04:50:36;12.33;;;3.53;;
16037;SDS011;8123;50.906;6.172;2023-09-19T04:53:02;14.77;;;3.40;;
16037;SDS011;8123;50.906;6.172;2023-09-19T04:55:28;11.20;;;2.60;;
16037;SDS011;8123;50.906;6.172;2023-09-19T04:57:55;16.73;;;2.83;;
16037;SDS011;8123;50.906;6.172;2023-09-19T05:00:21;9.73;;;2.50;;
16037;SDS011;8123;50.906;6.172;2023-09-19T05:02:52;19.40;;;2.80;;
16037;SDS011;8123;50.906;6.172;2023-09-19T05:05:21;9.97;;;3.23;;
16037;SDS011;8123;50.906;6.172;2023-09-19T05:07:51;10.63;;;2.87;;
16037;SDS011;8123;50.906;6.172;2023-09-19T05:10:18;8.90;;;2.67;;
16037;SDS011;8123;50.906;6.172;2023-09-19T05:12:44;6.90;;;2.63;;
16037;SDS011;8123;50.906;6.172;2023-09-19T05:15:13;8.77;;;3.17;;
16037;SDS011;8123;50.906;6.172;2023-09-19T05:17:40;7.20;;;2.50;;
16037;SDS011;8123;50.906;6.172;2023-09-19T05:20:06;10.97;;;2.97;;
16037;SDS011;8123;50.906;6.172;2023-09-19T05:22:44;9.20;;;2.90;;
16037;SDS011;8123;50.906;6.172;2023-09-19T05:25:11;15.20;;;2.53;;
16037;SDS011;8123;50.906;6.172;2023-09-19T05:27:41;16.70;;;3.63;;
16037;SDS011;8123;50.906;6.172;2023-09-19T05:30:07;12.73;;;3.23;;
16037;SDS011;8123;50.906;6.172;2023-09-19T05:32:33;13.77;;;3.87;;
16037;SDS011;8123;50.906;6.172;2023-09-19T05:34:59;12.50;;;3.00;;
16037;SDS011;8123;50.906;6.172;2023-09-19T05:37:25;10.10;;;3.37;;
16037;SDS011;8123;50.906;6.172;2023-09-19T05:39:51;10.30;;;3.40;;
16037;SDS011;8123;50.906;6.172;2023-09-19T05:42:18;11.17;;;2.80;;
16037;SDS011;8123;50.906;6.172;2023-09-19T05:44:44;17.63;;;3.30;;
16037;SDS011;8123;50.906;6.172;2023-09-19T05:47:10;16.63;;;3.87;;
16037;SDS011;8123;50.906;6.172;2023-09-19T05:49:35;17.33;;;2.93;;
16037;SDS011;8123;50.906;6.172;2023-09-19T05:52:05;7.40;;;2.87;;
16037;SDS011;8123;50.906;6.172;2023-09-19T05:54:31;16.17;;;3.23;;
16037;SDS011;8123;50.906;6.172;2023-09-19T05:56:58;14.93;;;3.17;;
16037;SDS011;8123;50.906;6.172;2023-09-19T05:59:23;7.70;;;2.77;;
16037;SDS011;8123;50.906;6.172;2023-09-19T06:01:49;4.43;;;2.77;;
16037;SDS011;8123;50.906;6.172;2023-09-19T06:04:15;8.43;;;2.70;;
16037;SDS011;8123;50.906;6.172;2023-09-19T06:06:40;16.30;;;3.33;;
16037;SDS011;8123;50.906;6.172;2023-09-19T06:09:06;12.87;;;2.90;;
16037;SDS011;8123;50.906;6.172;2023-09-19T06:11:35;24.10;;;3.60;;
16037;SDS011;8123;50.906;6.172;2023-09-19T06:14:01;13.93;;;3.50;;
16037;SDS011;8123;50.906;6.172;2023-09-19T06:16:28;16.00;;;3.10;;
16037;SDS011;8123;50.906;6.172;2023-09-19T06:18:54;12.93;;;3.00;;
16037;SDS011;8123;50.906;6.172;2023-09-19T06:21:25;13.70;;;2.50;;
16037;SDS011;8123;50.906;6.172;2023-09-19T06:23:52;8.83;;;3.23;;
16037;SDS011;8123;50.906;6.172;2023-09-19T06:26:18;11.33;;;3.10;;
16037;SDS011;8123;50.906;6.172;2023-09-19T06:28:44;10.37;;;4.57;;
16037;SDS011;8123;50.906;6.172;2023-09-19T06:31:10;20.23;;;4.27;;
16037;SDS011;8123;50.906;6.172;2023-09-19T06:33:37;10.93;;;4.10;;
16037;SDS011;8123;50.906;6.172;2023-09-19T06:36:06;22.07;;;9.80;;
16037;SDS011;8123;50.906;6.172;2023-09-19T06:38:32;17.80;;;7.17;;
16037;SDS011;8123;50.906;6.172;2023-09-19T06:41:02;14.83;;;5.60;;
16037;SDS011;8123;50.906;6.172;2023-09-19T06:43:33;21.90;;;6.50;;
16037;SDS011;8123;50.906;6.172;2023-09-19T06:45:59;11.87;;;3.47;;
16037;SDS011;8123;50.906;6.172;2023-09-19T06:48:29;13.20;;;3.77;;
16037;SDS011;8123;50.906;6.172;2023-09-19T06:50:55;13.13;;;2.83;;
16037;SDS011;8123;50.906;6.172;2023-09-19T06:53:23;15.57;;;3.50;;
16037;SDS011;8123;50.906;6.172;2023-09-19T06:55:50;6.60;;;3.80;;
16037;SDS011;8123;50.906;6.172;2023-09-19T06:58:16;23.50;;;5.00;;
16037;SDS011;8123;50.906;6.172;2023-09-19T07:00:45;19.37;;;4.13;;
16037;SDS011;8123;50.906;6.172;2023-09-19T07:03:13;13.90;;;3.73;;
16037;SDS011;8123;50.906;6.172;2023-09-19T07:05:39;6.77;;;3.50;;
16037;SDS011;8123;50.906;6.172;2023-09-19T07:08:08;7.33;;;3.80;;
16037;SDS011;8123;50.906;6.172;2023-09-19T07:10:37;9.83;;;2.60;;
16037;SDS011;8123;50.906;6.172;2023-09-19T07:13:06;11.20;;;3.43;;
16037;SDS011;8123;50.906;6.172;2023-09-19T07:15:34;11.07;;;3.70;;
16037;SDS011;8123;50.906;6.172;2023-09-19T07:18:06;12.33;;;3.93;;
16037;SDS011;8123;50.906;6.172;2023-09-19T07:20:37;22.07;;;2.80;;
16037;SDS011;8123;50.906;6.172;2023-09-19T07:23:03;12.67;;;3.93;;
16037;SDS011;8123;50.906;6.172;2023-09-19T07:25:29;6.63;;;2.60;;
16037;SDS011;8123;50.906;6.172;2023-09-19T07:27:57;12.00;;;2.77;;
16037;SDS011;8123;50.906;6.172;2023-09-19T07:30:28;16.23;;;3.13;;
16037;SDS011;8123;50.906;6.172;2023-09-19T07:32:54;13.53;;;4.50;;
16037;SDS011;8123;50.906;6.172;2023-09-19T07:35:20;13.90;;;3.60;;
16037;SDS011;8123;50.906;6.172;2023-09-19T07:37:46;8.00;;;3.30;;
16037;SDS011;8123;50.906;6.172;2023-09-19T07:40:16;8.80;;;2.70;;
16037;SDS011;8123;50.906;6.172;2023-09-19T07:42:42;10.80;;;2.83;;
16037;SDS011;8123;50.906;6.172;2023-09-19T07:45:11;19.67;;;3.87;;
16037;SDS011;8123;50.906;6.172;2023-09-19T07:47:40;18.40;;;4.07;;
16037;SDS011;8123;50.906;6.172;2023-09-19T07:50:12;15.53;;;3.20;;
16037;SDS011;8123;50.906;6.172;2023-09-19T07:52:39;12.43;;;3.20;;
16037;SDS011;8123;50.906;6.172;2023-09-19T07:55:06;11.73;;;3.40;;
16037;SDS011;8123;50.906;6.172;2023-09-19T07:57:36;9.37;;;3.37;;
16037;SDS011;8123;50.906;6.172;2023-09-19T08:00:02;11.07;;;3.17;;
16037;SDS011;8123;50.906;6.172;2023-09-19T08:02:30;14.87;;;2.80;;
16037;SDS011;8123;50.906;6.172;2023-09-19T08:04:59;18.60;;;2.90;;
16037;SDS011;8123;50.906;6.172;2023-09-19T08:07:25;11.33;;;3.30;;
16037;SDS011;8123;50.906;6.172;2023-09-19T08:09:51;11.27;;;3.47;;
16037;SDS011;8123;50.906;6.172;2023-09-19T08:12:16;12.20;;;3.97;;
16037;SDS011;8123;50.906;6.172;2023-09-19T08:14:42;8.53;;;3.27;;
16037;SDS011;8123;50.906;6.172;2023-09-19T08:17:08;18.47;;;2.77;;
16037;SDS011;8123;50.906;6.172;2023-09-19T08:19:34;9.57;;;3.30;;
16037;SDS011;8123;50.906;6.172;2023-09-19T08:21:59;15.47;;;3.10;;
16037;SDS011;8123;50.906;6.172;2023-09-19T08:24:28;13.57;;;3.90;;
16037;SDS011;8123;50.906;6.172;2023-09-19T08:26:55;12.90;;;3.80;;
16037;SDS011;8123;50.906;6.172;2023-09-19T08:29:22;10.57;;;2.83;;
16037;SDS011;8123;50.906;6.172;2023-09-19T08:31:55;9.23;;;2.83;;
16037;SDS011;8123;50.906;6.172;2023-09-19T08:34:25;7.73;;;3.10;;
16037;SDS011;8123;50.906;6.172;2023-09-19T08:36:54;9.57;;;3.10;;
16037;SDS011;8123;50.906;6.172;2023-09-19T08:39:23;7.33;;;2.50;;
16037;SDS011;8123;50.906;6.172;2023-09-19T08:41:49;5.10;;;3.30;;
16037;SDS011;8123;50.906;6.172;2023-09-19T08:44:21;14.40;;;4.00;;
16037;SDS011;8123;50.906;6.172;2023-09-19T08:46:47;8.90;;;3.03;;
16037;SDS011;8123;50.906;6.172;2023-09-19T08:49:19;14.63;;;4.00;;
16037;SDS011;8123;50.906;6.172;2023-09-19T08:52:19;8.67;;;2.80;;
16037;SDS011;8123;50.906;6.172;2023-09-19T08:54:45;13.50;;;2.60;;
16037;SDS011;8123;50.906;6.172;2023-09-19T08:57:14;11.60;;;3.93;;
16037;SDS011;8123;50.906;6.172;2023-09-19T08:59:46;8.47;;;2.93;;
16037;SDS011;8123;50.906;6.172;2023-09-19T09:02:16;10.60;;;4.27;;
16037;SDS011;8123;50.906;6.172;2023-09-19T09:04:44;13.40;;;2.73;;
16037;SDS011;8123;50.906;6.172;2023-09-19T09:07:12;9.33;;;3.13;;
16037;SDS011;8123;50.906;6.172;2023-09-19T09:09:38;5.50;;;2.50;;
16037;SDS011;8123;50.906;6.172;2023-09-19T09:12:08;12.20;;;3.07;;
16037;SDS011;8123;50.906;6.172;2023-09-19T09:14:38;13.90;;;3.37;;
16037;SDS011;8123;50.906;6.172;2023-09-19T09:17:17;15.77;;;3.53;;
16037;SDS011;8123;50.906;6.172;2023-09-19T09:19:45;11.00;;;2.70;;
16037;SDS011;8123;50.906;6.172;2023-09-19T09:22:11;14.13;;;3.27;;
16037;SDS011;8123;50.906;6.172;2023-09-19T09:24:37;8.90;;;2.70;;
16037;SDS011;8123;50.906;6.172;2023-09-19T09:27:19;2.90;;;2.37;;
16037;SDS011;8123;50.906;6.172;2023-09-19T09:29:45;13.40;;;3.03;;
16037;SDS011;8123;50.906;6.172;2023-09-19T09:32:22;10.07;;;2.63;;
16037;SDS011;8123;50.906;6.172;2023-09-19T09:34:54;5.27;;;2.30;;
16037;SDS011;8123;50.906;6.172;2023-09-19T09:37:21;14.77;;;3.13;;
16037;SDS011;8123;50.906;6.172;2023-09-19T09:39:51;11.60;;;2.50;;
16037;SDS011;8123;50.906;6.172;2023-09-19T09:42:30;16.43;;;3.20;;
16037;SDS011;8123;50.906;6.172;2023-09-19T09:48:02;10.23;;;2.90;;
16037;SDS011;8123;50.906;6.172;2023-09-19T09:50:32;8.80;;;3.07;;
16037;SDS011;8123;50.906;6.172;2023-09-19T09:58:36;11.77;;;3.10;;
16037;SDS011;8123;50.906;6.172;2023-09-19T10:01:05;14.17;;;2.50;;
16037;SDS011;8123;50.906;6.172;2023-09-19T10:03:35;12.10;;;2.70;;
16037;SDS011;8123;50.906;6.172;2023-09-19T10:06:09;7.47;;;2.53;;
16037;SDS011;8123;50.906;6.172;2023-09-19T10:11:38;16.10;;;3.10;;
16037;SDS011;8123;50.906;6.172;2023-09-19T10:14:09;12.00;;;3.27;;
16037;SDS011;8123;50.906;6.172;2023-09-19T10:16:40;11.83;;;2.67;;
16037;SDS011;8123;50.906;6.172;2023-09-19T10:19:28;11.93;;;3.47;;
16037;SDS011;8123;50.906;6.172;2023-09-19T10:21:58;5.90;;;2.43;;
16037;SDS011;8123;50.906;6.172;2023-09-19T10:24:26;5.60;;;3.00;;
16037;SDS011;8123;50.906;6.172;2023-09-19T10:26:53;8.20;;;2.90;;
16037;SDS011;8123;50.906;6.172;2023-09-19T10:29:20;10.10;;;3.93;;
16037;SDS011;8123;50.906;6.172;2023-09-19T10:31:47;4.77;;;3.13;;
16037;SDS011;8123;50.906;6.172;2023-09-19T10:34:17;14.10;;;2.77;;
16037;SDS011;8123;50.906;6.172;2023-09-19T10:36:44;9.73;;;2.97;;
16037;SDS011;8123;50.906;6.172;2023-09-19T10:39:12;12.07;;;2.80;;
16037;SDS011;8123;50.906;6.172;2023-09-19T10:41:43;7.33;;;2.40;;
16037;SDS011;8123;50.906;6.172;2023-09-19T10:44:24;7.63;;;3.20;;
16037;SDS011;8123;50.906;6.172;2023-09-19T10:46:51;6.00;;;2.83;;
16037;SDS011;8123;50.906;6.172;2023-09-19T10:49:18;6.77;;;3.13;;
16037;SDS011;8123;50.906;6.172;2023-09-19T10:51:44;4.00;;;2.60;;
16037;SDS011;8123;50.906;6.172;2023-09-19T10:54:13;6.70;;;2.47;;
16037;SDS011;8123;50.906;6.172;2023-09-19T10:56:47;12.33;;;2.70;;
16037;SDS011;8123;50.906;6.172;2023-09-19T10:59:17;13.40;;;3.10;;
16037;SDS011;8123;50.906;6.172;2023-09-19T11:01:56;6.70;;;2.77;;
16037;SDS011;8123;50.906;6.172;2023-09-19T11:04:32;11.90;;;2.97;;
16037;SDS011;8123;50.906;6.172;2023-09-19T11:09:52;8.37;;;2.80;;
16037;SDS011;8123;50.906;6.172;2023-09-19T11:14:54;6.83;;;2.63;;
16037;SDS011;8123;50.906;6.172;2023-09-19T11:30:37;7.30;;;2.40;;
16037;SDS011;8123;50.906;6.172;2023-09-19T11:33:23;11.27;;;3.20;;
16037;SDS011;8123;50.906;6.172;2023-09-19T11:46:26;13.53;;;2.63;;
16037;SDS011;8123;50.906;6.172;2023-09-19T11:48:53;22.50;;;2.80;;
16037;SDS011;8123;50.906;6.172;2023-09-19T11:51:20;7.57;;;2.23;;
16037;SDS011;8123;50.906;6.172;2023-09-19T11:53:56;7.33;;;2.10;;
16037;SDS011;8123;50.906;6.172;2023-09-19T11:56:25;11.70;;;2.97;;
16037;SDS011;8123;50.906;6.172;2023-09-19T11:58:53;11.80;;;2.73;;
16037;SDS011;8123;50.906;6.172;2023-09-19T12:01:24;8.70;;;2.70;;
16037;SDS011;8123;50.906;6.172;2023-09-19T12:03:58;7.97;;;2.73;;
16037;SDS011;8123;50.906;6.172;2023-09-19T12:06:25;8.60;;;3.10;;
16037;SDS011;8123;50.906;6.172;2023-09-19T12:08:51;7.00;;;2.40;;
16037;SDS011;8123;50.906;6.172;2023-09-19T12:11:19;5.13;;;2.20;;
16037;SDS011;8123;50.906;6.172;2023-09-19T12:13:48;11.40;;;2.40;;
16037;SDS011;8123;50.906;6.172;2023-09-19T12:16:15;8.03;;;2.57;;
16037;SDS011;8123;50.906;6.172;2023-09-19T12:18:42;3.50;;;2.30;;
16037;SDS011;8123;50.906;6.172;2023-09-19T12:21:21;10.97;;;3.20;;
16037;SDS011;8123;50.906;6.172;2023-09-19T12:26:43;4.73;;;1.87;;
16037;SDS011;8123;50.906;6.172;2023-09-19T12:29:13;6.43;;;2.13;;
16037;SDS011;8123;50.906;6.172;2023-09-19T12:31:53;5.17;;;1.77;;
16037;SDS011;8123;50.906;6.172;2023-09-19T12:34:23;2.63;;;1.53;;
16037;SDS011;8123;50.906;6.172;2023-09-19T12:37:03;7.20;;;2.43;;
16037;SDS011;8123;50.906;6.172;2023-09-19T12:39:44;5.80;;;2.03;;
16037;SDS011;8123;50.906;6.172;2023-09-19T12:42:22;5.13;;;1.73;;
16037;SDS011;8123;50.906;6.172;2023-09-19T12:44:50;4.70;;;1.83;;
16037;SDS011;8123;50.906;6.172;2023-09-19T12:47:21;5.63;;;2.00;;
16037;SDS011;8123;50.906;6.172;2023-09-19T12:55:26;5.73;;;2.50;;
16037;SDS011;8123;50.906;6.172;2023-09-19T13:05:53;11.03;;;2.17;;
16037;SDS011;8123;50.906;6.172;2023-09-19T13:08:30;9.20;;;1.70;;
16037;SDS011;8123;50.906;6.172;2023-09-19T13:13:40;4.00;;;1.80;;
16037;SDS011;8123;50.906;6.172;2023-09-19T13:16:13;4.20;;;2.00;;
16037;SDS011;8123;50.906;6.172;2023-09-19T13:18:43;10.00;;;2.10;;
16037;SDS011;8123;50.906;6.172;2023-09-19T13:21:13;3.70;;;2.10;;
16037;SDS011;8123;50.906;6.172;2023-09-19T13:23:51;4.00;;;1.90;;
16037;SDS011;8123;50.906;6.172;2023-09-19T13:26:19;5.93;;;1.63;;
16037;SDS011;8123;50.906;6.172;2023-09-19T13:28:45;4.97;;;1.70;;
16037;SDS011;8123;50.906;6.172;2023-09-19T13:31:12;7.93;;;2.33;;
16037;SDS011;8123;50.906;6.172;2023-09-19T13:33:45;4.43;;;1.70;;
16037;SDS011;8123;50.906;6.172;2023-09-19T13:36:12;7.90;;;1.60;;
16037;SDS011;8123;50.906;6.172;2023-09-19T13:38:42;3.83;;;1.87;;
16037;SDS011;8123;50.906;6.172;2023-09-19T13:41:13;6.33;;;2.03;;
16037;SDS011;8123;50.906;6.172;2023-09-19T13:43:39;2.90;;;1.77;;
16037;SDS011;8123;50.906;6.172;2023-09-19T13:46:05;7.40;;;1.53;;
16037;SDS011;8123;50.906;6.172;2023-09-19T13:48:37;5.70;;;1.50;;
16037;SDS011;8123;50.906;6.172;2023-09-19T13:51:03;5.53;;;2.80;;
16037;SDS011;8123;50.906;6.172;2023-09-19T13:53:29;4.97;;;2.10;;
16037;SDS011;8123;50.906;6.172;2023-09-19T13:55:55;4.70;;;2.00;;
16037;SDS011;8123;50.906;6.172;2023-09-19T13:58:21;2.70;;;1.60;;
16037;SDS011;8123;50.906;6.172;2023-09-19T14:00:48;10.60;;;1.60;;
16037;SDS011;8123;50.906;6.172;2023-09-19T14:03:14;8.70;;;2.40;;
16037;SDS011;8123;50.906;6.172;2023-09-19T14:05:39;5.43;;;2.00;;
16037;SDS011;8123;50.906;6.172;2023-09-19T14:08:05;2.27;;;2.07;;
16037;SDS011;8123;50.906;6.172;2023-09-19T14:10:31;14.00;;;6.83;;
16037;SDS011;8123;50.906;6.172;2023-09-19T14:12:57;6.97;;;1.27;;
16037;SDS011;8123;50.906;6.172;2023-09-19T14:15:28;6.90;;;1.60;;
16037;SDS011;8123;50.906;6.172;2023-09-19T14:17:57;1.70;;;1.17;;
16037;SDS011;8123;50.906;6.172;2023-09-19T14:20:24;5.17;;;1.80;;
16037;SDS011;8123;50.906;6.172;2023-09-19T14:22:51;1.47;;;1.37;;
16037;SDS011;8123;50.906;6.172;2023-09-19T14:25:17;2.30;;;1.40;;
16037;SDS011;8123;50.906;6.172;2023-09-19T14:27:43;3.03;;;1.77;;
16037;SDS011;8123;50.906;6.172;2023-09-19T14:30:09;2.90;;;1.50;;
16037;SDS011;8123;50.906;6.172;2023-09-19T14:32:35;9.13;;;2.00;;
16037;SDS011;8123;50.906;6.172;2023-09-19T14:35:01;3.83;;;2.60;;
16037;SDS011;8123;50.906;6.172;2023-09-19T14:37:27;4.33;;;1.50;;
16037;SDS011;8123;50.906;6.172;2023-09-19T14:39:53;5.53;;;1.77;;
16037;SDS011;8123;50.906;6.172;2023-09-19T14:42:19;2.33;;;1.47;;
16037;SDS011;8123;50.906;6.172;2023-09-19T14:44:45;7.13;;;1.87;;
16037;SDS011;8123;50.906;6.172;2023-09-19T14:47:12;2.67;;;1.70;;
16037;SDS011;8123;50.906;6.172;2023-09-19T14:49:38;2.17;;;1.93;;
16037;SDS011;8123;50.906;6.172;2023-09-19T14:52:06;2.10;;;1.27;;
16037;SDS011;8123;50.906;6.172;2023-09-19T14:54:32;3.27;;;1.60;;
16037;SDS011;8123;50.906;6.172;2023-09-19T14:56:58;3.77;;;1.47;;
16037;SDS011;8123;50.906;6.172;2023-09-19T14:59:31;5.30;;;1.43;;
16037;SDS011;8123;50.906;6.172;2023-09-19T15:01:57;3.77;;;1.90;;
16037;SDS011;8123;50.906;6.172;2023-09-19T15:04:23;4.30;;;2.13;;
16037;SDS011;8123;50.906;6.172;2023-09-19T15:06:49;4.40;;;1.30;;
16037;SDS011;8123;50.906;6.172;2023-09-19T15:09:16;2.47;;;1.70;;
16037;SDS011;8123;50.906;6.172;2023-09-19T15:11:44;8.50;;;2.90;;
16037;SDS011;8123;50.906;6.172;2023-09-19T15:14:09;13.03;;;3.33;;
16037;SDS011;8123;50.906;6.172;2023-09-19T15:16:35;6.80;;;2.93;;
16037;SDS011;8123;50.906;6.172;2023-09-19T15:19:01;8.70;;;3.90;;
16037;SDS011;8123;50.906;6.172;2023-09-19T15:21:26;6.37;;;2.77;;
16037;SDS011;8123;50.906;6.172;2023-09-19T15:23:52;10.47;;;3.60;;
16037;SDS011;8123;50.906;6.172;2023-09-19T15:26:17;3.70;;;1.67;;
16037;SDS011;8123;50.906;6.172;2023-09-19T15:28:46;6.90;;;1.60;;
16037;SDS011;8123;50.906;6.172;2023-09-19T15:31:13;6.03;;;2.10;;
16037;SDS011;8123;50.906;6.172;2023-09-19T15:33:39;4.23;;;1.47;;
16037;SDS011;8123;50.906;6.172;2023-09-19T15:36:05;2.83;;;1.33;;
16037;SDS011;8123;50.906;6.172;2023-09-19T15:41:34;3.70;;;1.63;;
16037;SDS011;8123;50.906;6.172;2023-09-19T15:44:04;2.70;;;1.60;;
16037;SDS011;8123;50.906;6.172;2023-09-19T15:46:36;5.03;;;1.80;;
16037;SDS011;8123;50.906;6.172;2023-09-19T15:49:02;2.20;;;1.57;;
16037;SDS011;8123;50.906;6.172;2023-09-19T15:51:28;3.77;;;1.60;;
16037;SDS011;8123;50.906;6.172;2023-09-19T15:53:54;4.40;;;1.60;;
16037;SDS011;8123;50.906;6.172;2023-09-19T15:56:21;2.33;;;1.20;;
16037;SDS011;8123;50.906;6.172;2023-09-19T15:58:48;3.57;;;1.57;;
16037;SDS011;8123;50.906;6.172;2023-09-19T16:01:15;3.20;;;1.93;;
16037;SDS011;8123;50.906;6.172;2023-09-19T16:03:51;2.20;;;1.37;;
16037;SDS011;8123;50.906;6.172;2023-09-19T16:06:23;8.73;;;1.70;;
16037;SDS011;8123;50.906;6.172;2023-09-19T16:08:51;7.40;;;1.70;;
16037;SDS011;8123;50.906;6.172;2023-09-19T16:11:18;4.80;;;1.40;;
16037;SDS011;8123;50.906;6.172;2023-09-19T16:13:46;2.20;;;1.27;;
16037;SDS011;8123;50.906;6.172;2023-09-19T16:16:13;4.77;;;1.43;;
16037;SDS011;8123;50.906;6.172;2023-09-19T16:18:45;3.70;;;1.80;;
16037;SDS011;8123;50.906;6.172;2023-09-19T16:21:13;2.23;;;1.20;;
16037;SDS011;8123;50.906;6.172;2023-09-19T16:23:38;3.30;;;1.40;;